Time;durP1;ratioP1;P1;durP2;ratioP2;P2;SDS_P1;SDS_P2;PMS_P1;PMS_P2;Temp;Humidity;BMP_temperature;BMP_pressure;BME280_temperature;BME280_humidity;BME280_pressure;Samples;Min_cycle;Max_cycle;Signal;HPM_P1;HPM_P2
2023/10/22 00:02:17;;;;;;;4.10;1.90;;;11.60;99.90;;;;;;5068920;28;20493;-70
2023/10/22 00:04:45;;;;;;;6.18;1.13;;;11.70;99.90;;;;;;5072049;28;20024;-70
2023/10/22 00:07:14;;;;;;;4.03;0.95;;;11.70;99.90;;;;;;5068903;28;20039;-70
2023/10/22 00:09:40;;;;;;;2.47;0.90;;;11.70;99.90;;;;;;5066076;28;20473;-70
2023/10/22 00:12:06;;;;;;;4.20;0.95;;;11.70;99.90;;;;;;5066248;28;20029;-70
2023/10/22 00:14:31;;;;;;;2.03;1.00;;;11.70;99.90;;;;;;5068247;28;20505;-70
2023/10/22 00:16:57;;;;;;;0.70;0.60;;;11.80;99.90;;;;;;5067147;28;20037;-70
2023/10/22 00:19:25;;;;;;;2.88;0.70;;;11.80;99.90;;;;;;5067658;28;20044;-69
2023/10/22 00:21:50;;;;;;;9.20;1.23;;;11.90;99.90;;;;;;5078931;28;20020;-70
2023/10/22 00:24:18;;;;;;;2.40;0.82;;;11.80;99.90;;;;;;5069332;28;20024;-70
2023/10/22 00:26:44;;;;;;;4.22;0.82;;;11.80;99.90;;;;;;5069976;28;20025;-70
2023/10/22 00:29:12;;;;;;;3.42;0.90;;;11.90;99.90;;;;;;5074850;28;20059;-70
2023/10/22 00:31:37;;;;;;;5.03;0.65;;;11.90;99.90;;;;;;5072914;28;20024;-70
2023/10/22 00:34:03;;;;;;;2.25;1.02;;;11.90;99.90;;;;;;5069107;28;20038;-70
2023/10/22 00:36:29;;;;;;;4.10;1.25;;;12.00;99.90;;;;;;5069629;28;20586;-70
2023/10/22 00:38:54;;;;;;;1.13;0.40;;;12.00;99.90;;;;;;5069199;28;20608;-70
2023/10/22 00:41:20;;;;;;;3.45;0.75;;;12.00;99.90;;;;;;5064909;28;20016;-70
2023/10/22 00:43:45;;;;;;;2.85;0.77;;;12.00;99.90;;;;;;5080052;28;20032;-70
2023/10/22 00:46:22;;;;;;;1.85;0.73;;;11.90;99.90;;;;;;5067680;28;20025;-70
2023/10/22 00:48:49;;;;;;;1.15;0.50;;;11.90;99.90;;;;;;5068584;28;20024;-70
2023/10/22 00:51:16;;;;;;;2.60;0.50;;;12.00;99.90;;;;;;5073406;28;20043;-70
2023/10/22 00:53:46;;;;;;;4.85;1.10;;;12.00;99.90;;;;;;5068757;28;20082;-69
2023/10/22 00:56:14;;;;;;;2.30;0.90;;;12.00;99.90;;;;;;5067387;28;20098;-70
2023/10/22 00:58:41;;;;;;;3.80;0.73;;;12.10;99.90;;;;;;5075172;28;20052;-70
2023/10/22 01:01:08;;;;;;;2.97;0.60;;;12.00;99.90;;;;;;5073534;28;20508;-70
2023/10/22 01:03:38;;;;;;;1.65;0.80;;;12.00;99.90;;;;;;5068390;28;20029;-70
2023/10/22 01:06:09;;;;;;;3.25;0.98;;;12.00;99.90;;;;;;5070607;28;20032;-70
2023/10/22 01:08:35;;;;;;;5.53;0.63;;;12.00;99.90;;;;;;5065376;28;20074;-70
2023/10/22 01:11:09;;;;;;;1.50;0.75;;;12.00;99.90;;;;;;5067426;28;20047;-70
2023/10/22 01:13:35;;;;;;;1.95;0.88;;;12.00;99.90;;;;;;5067076;28;20506;-70
2023/10/22 01:16:01;;;;;;;3.70;0.85;;;12.10;99.90;;;;;;5066751;28;20107;-70
2023/10/22 01:18:27;;;;;;;2.85;0.75;;;12.00;99.90;;;;;;5070775;28;20111;-70
2023/10/22 01:20:53;;;;;;;5.10;0.82;;;12.10;99.90;;;;;;5070510;28;20033;-69
2023/10/22 01:23:20;;;;;;;7.10;0.85;;;12.10;99.90;;;;;;5071243;28;20086;-70
2023/10/22 01:25:48;;;;;;;5.03;0.63;;;12.10;99.90;;;;;;5066239;28;20060;-70
2023/10/22 01:28:17;;;;;;;6.30;0.88;;;12.20;99.90;;;;;;5074990;28;20040;-70
2023/10/22 01:30:42;;;;;;;1.88;0.68;;;12.10;99.90;;;;;;5073866;28;20077;-70
2023/10/22 01:33:10;;;;;;;2.15;0.60;;;12.10;99.90;;;;;;5068824;28;20036;-70
2023/10/22 01:35:37;;;;;;;2.88;1.00;;;12.20;99.90;;;;;;5072655;28;20036;-70
2023/10/22 01:38:02;;;;;;;3.85;0.60;;;12.10;99.90;;;;;;5069000;28;20025;-70
2023/10/22 01:40:30;;;;;;;1.10;0.60;;;12.10;99.90;;;;;;5076521;28;20090;-70
2023/10/22 01:42:56;;;;;;;6.43;0.85;;;12.10;99.90;;;;;;5066027;28;20048;-69
2023/10/22 01:45:24;;;;;;;3.20;1.20;;;12.10;99.90;;;;;;5067661;28;20466;-70
2023/10/22 01:47:50;;;;;;;;;;;12.10;99.90;;;;;;5073160;28;20028;-70
2023/10/22 01:50:18;;;;;;;3.42;1.17;;;12.10;99.90;;;;;;5074462;28;19911;-70
2023/10/22 01:52:46;;;;;;;12.07;1.10;;;12.10;99.90;;;;;;5067718;28;20090;-70
2023/10/22 01:55:11;;;;;;;1.55;0.73;;;12.20;99.90;;;;;;5068831;28;20067;-70
2023/10/22 01:57:37;;;;;;;4.93;0.90;;;12.20;99.90;;;;;;5066152;28;20052;-70
2023/10/22 02:00:05;;;;;;;4.80;0.80;;;12.20;99.90;;;;;;5066715;28;20078;-70
2023/10/22 02:02:31;;;;;;;3.33;1.05;;;12.20;99.90;;;;;;5064382;28;20438;-70
2023/10/22 02:04:57;;;;;;;2.25;0.60;;;12.10;99.90;;;;;;5072285;28;20070;-70
2023/10/22 02:07:22;;;;;;;4.63;0.70;;;12.10;99.90;;;;;;5068308;28;20082;-70
2023/10/22 02:09:48;;;;;;;2.13;0.40;;;12.10;99.90;;;;;;5066329;28;20028;-70
2023/10/22 02:12:16;;;;;;;2.50;0.65;;;12.00;99.90;;;;;;5070298;28;20102;-70
2023/10/22 02:14:42;;;;;;;2.60;0.98;;;12.00;99.90;;;;;;5067008;28;20060;-70
2023/10/22 02:17:07;;;;;;;2.80;0.60;;;12.00;99.90;;;;;;5068129;28;20080;-70
2023/10/22 02:19:33;;;;;;;3.65;1.00;;;11.90;99.90;;;;;;5073871;28;20028;-69
2023/10/22 02:21:59;;;;;;;4.65;0.70;;;11.90;99.90;;;;;;5068908;28;20025;-70
2023/10/22 02:24:28;;;;;;;5.13;0.65;;;11.90;99.90;;;;;;5068935;28;20471;-69
2023/10/22 02:26:53;;;;;;;2.45;0.65;;;11.90;99.90;;;;;;5068362;28;20025;-70
2023/10/22 02:29:21;;;;;;;3.50;0.80;;;11.90;99.90;;;;;;5069655;28;20771;-70
2023/10/22 02:31:47;;;;;;;8.80;0.57;;;11.90;99.90;;;;;;5075209;28;20023;-70
2023/10/22 02:34:15;;;;;;;3.78;0.85;;;11.90;99.90;;;;;;5067517;28;20375;-70
2023/10/22 02:36:40;;;;;;;;;;;11.90;99.90;;;;;;5071850;28;20482;-70
2023/10/22 02:39:08;;;;;;;1.85;0.60;;;11.90;99.90;;;;;;5070231;28;19908;-70
2023/10/22 02:41:33;;;;;;;4.90;1.20;;;12.00;99.90;;;;;;5071483;28;20031;-70
2023/10/22 02:43:59;;;;;;;1.35;0.47;;;12.00;99.90;;;;;;5067847;28;20040;-70
2023/10/22 02:46:25;;;;;;;6.15;0.55;;;11.90;99.90;;;;;;5072393;28;20020;-69
2023/10/22 02:48:50;;;;;;;3.47;0.85;;;11.90;99.90;;;;;;5070473;28;20031;-68
2023/10/22 02:51:19;;;;;;;4.07;0.60;;;11.90;99.90;;;;;;5078506;28;20158;-68
2023/10/22 02:53:44;;;;;;;3.75;0.93;;;11.90;99.90;;;;;;5073107;28;20032;-69
2023/10/22 02:56:12;;;;;;;4.63;0.70;;;11.90;99.90;;;;;;5073621;28;20394;-68
2023/10/22 02:58:38;;;;;;;;;;;11.90;99.90;;;;;;5070913;28;20024;-70
2023/10/22 03:01:09;;;;;;;1.92;0.50;;;12.00;99.90;;;;;;5077301;28;19908;-69
2023/10/22 03:03:38;;;;;;;2.00;0.70;;;12.00;99.90;;;;;;5070029;28;20050;-69
2023/10/22 03:06:09;;;;;;;2.25;0.90;;;12.10;99.90;;;;;;5080211;28;20135;-69
2023/10/22 03:08:39;;;;;;;6.25;0.93;;;12.10;99.90;;;;;;5070775;28;20029;-70
2023/10/22 03:11:13;;;;;;;1.15;0.57;;;12.10;99.90;;;;;;5075726;28;20025;-70
2023/10/22 03:13:41;;;;;;;7.38;1.08;;;12.10;99.90;;;;;;5073918;28;20111;-69
2023/10/22 03:16:12;;;;;;;2.67;0.80;;;12.20;99.90;;;;;;5074677;28;20039;-69
2023/10/22 03:18:42;;;;;;;3.53;0.80;;;12.20;99.90;;;;;;5076317;28;20035;-69
2023/10/22 03:21:20;;;;;;;2.75;0.80;;;12.30;99.90;;;;;;5074852;28;20028;-69
2023/10/22 03:23:47;;;;;;;4.32;0.80;;;12.20;99.90;;;;;;5071855;28;20352;-69
2023/10/22 03:26:16;;;;;;;4.20;0.57;;;12.20;99.90;;;;;;5072358;28;20016;-69
2023/10/22 03:28:42;;;;;;;4.68;0.93;;;12.20;99.90;;;;;;5070509;28;20044;-69
2023/10/22 03:31:08;;;;;;;1.77;0.68;;;12.20;99.90;;;;;;5070911;28;20512;-69
2023/10/22 03:33:34;;;;;;;1.95;0.55;;;12.20;99.90;;;;;;5074513;28;20029;-69
2023/10/22 03:36:00;;;;;;;4.78;0.95;;;12.20;99.90;;;;;;5070633;28;20550;-70
2023/10/22 03:38:26;;;;;;;2.28;0.73;;;12.30;99.90;;;;;;5074660;28;20085;-70
2023/10/22 03:41:02;;;;;;;3.42;0.60;;;12.20;99.90;;;;;;5077025;28;20028;-70
2023/10/22 03:43:28;;;;;;;3.35;0.73;;;12.30;99.90;;;;;;5083522;28;20047;-69
2023/10/22 03:45:57;;;;;;;2.22;0.73;;;12.30;99.90;;;;;;5079516;28;20595;-70
2023/10/22 03:48:23;;;;;;;3.55;0.65;;;12.30;99.90;;;;;;5072629;28;20028;-69
2023/10/22 03:50:49;;;;;;;3.03;1.10;;;12.30;99.90;;;;;;5075639;28;20056;-70
2023/10/22 03:53:15;;;;;;;2.50;0.47;;;12.30;99.90;;;;;;5071260;28;20056;-70
2023/10/22 03:55:40;;;;;;;8.27;1.48;;;12.30;99.90;;;;;;5070873;28;20034;-70
2023/10/22 03:58:06;;;;;;;2.15;0.80;;;12.30;99.90;;;;;;5068927;28;20453;-69
2023/10/22 04:00:32;;;;;;;3.95;0.70;;;12.30;99.90;;;;;;5070663;28;20024;-69
2023/10/22 04:03:01;;;;;;;4.07;1.02;;;12.30;99.90;;;;;;5072490;28;20494;-69
2023/10/22 04:05:27;;;;;;;5.18;0.95;;;12.30;99.90;;;;;;5068487;28;20063;-69
2023/10/22 04:07:53;;;;;;;7.30;0.70;;;12.20;99.90;;;;;;5068214;28;20068;-69
2023/10/22 04:10:21;;;;;;;1.50;0.60;;;12.20;99.90;;;;;;5075259;28;20021;-69
2023/10/22 04:12:46;;;;;;;;;;;12.20;99.90;;;;;;5070717;28;20043;-71
2023/10/22 04:15:12;;;;;;;4.25;1.00;;;12.20;99.90;;;;;;5065138;28;20277;-70
2023/10/22 04:17:38;;;;;;;7.25;0.85;;;12.30;99.90;;;;;;5068624;28;20491;-70
2023/10/22 04:20:05;;;;;;;3.05;0.88;;;12.20;99.90;;;;;;5071872;28;20076;-70
2023/10/22 04:22:30;;;;;;;6.78;0.88;;;12.20;99.90;;;;;;5069342;28;20028;-70
2023/10/22 04:24:56;;;;;;;4.25;0.70;;;12.20;99.90;;;;;;5078066;28;20099;-70
2023/10/22 04:27:22;;;;;;;4.68;1.00;;;12.10;99.90;;;;;;5068637;28;20439;-70
2023/10/22 04:29:48;;;;;;;3.95;1.00;;;12.10;99.90;;;;;;5069693;28;20037;-70
2023/10/22 04:32:14;;;;;;;3.65;0.60;;;12.20;99.90;;;;;;5066224;28;20811;-70
2023/10/22 04:34:40;;;;;;;4.57;0.90;;;12.20;99.90;;;;;;5069078;28;20040;-70
2023/10/22 04:37:06;;;;;;;3.03;0.75;;;12.20;99.90;;;;;;5065730;28;20051;-70
2023/10/22 04:39:32;;;;;;;4.97;0.80;;;12.20;99.90;;;;;;5072265;28;20016;-69
2023/10/22 04:41:58;;;;;;;3.22;0.85;;;12.20;99.90;;;;;;5066356;28;20629;-70
2023/10/22 04:44:24;;;;;;;6.97;1.48;;;12.20;99.90;;;;;;5070287;28;20070;-70
2023/10/22 04:46:55;;;;;;;4.32;1.05;;;12.20;99.90;;;;;;5069003;28;20028;-70
2023/10/22 04:49:20;;;;;;;2.13;0.80;;;12.20;99.90;;;;;;5070143;28;20086;-70
2023/10/22 04:51:46;;;;;;;4.38;0.88;;;12.20;99.90;;;;;;5065710;28;20020;-70
2023/10/22 04:54:12;;;;;;;2.25;0.65;;;12.30;99.90;;;;;;5071404;28;20097;-70
2023/10/22 04:56:37;;;;;;;6.18;1.00;;;12.30;99.90;;;;;;5073174;28;20075;-70
2023/10/22 04:59:04;;;;;;;4.88;0.80;;;12.30;99.90;;;;;;5079769;28;20083;-70
2023/10/22 05:01:29;;;;;;;2.97;0.77;;;12.30;99.90;;;;;;5066310;28;20028;-70
2023/10/22 05:03:55;;;;;;;2.65;0.80;;;12.30;99.90;;;;;;5069993;28;20024;-69
2023/10/22 05:06:25;;;;;;;4.88;0.82;;;12.30;99.90;;;;;;5068698;28;20146;-69
2023/10/22 05:08:50;;;;;;;4.32;0.90;;;12.30;99.90;;;;;;5068482;28;20024;-70
2023/10/22 05:11:17;;;;;;;3.00;0.65;;;12.30;99.90;;;;;;5065971;28;20035;-70
2023/10/22 05:13:44;;;;;;;2.60;1.05;;;12.30;99.90;;;;;;5064262;28;20021;-69
2023/10/22 05:16:10;;;;;;;3.47;0.93;;;12.30;99.90;;;;;;5065797;28;20021;-69
2023/10/22 05:18:37;;;;;;;3.53;1.25;;;12.30;99.90;;;;;;5066656;28;20028;-70
2023/10/22 05:21:07;;;;;;;5.15;1.00;;;12.30;99.90;;;;;;5062621;28;20078;-70
2023/10/22 05:23:36;;;;;;;6.97;0.85;;;12.40;99.90;;;;;;5068040;28;20025;-70
2023/10/22 05:26:12;;;;;;;7.90;1.10;;;12.30;99.90;;;;;;5075084;28;20032;-70
2023/10/22 05:28:40;;;;;;;4.07;0.80;;;12.30;99.90;;;;;;5069440;28;20020;-70
2023/10/22 05:31:13;;;;;;;1.83;0.88;;;12.30;99.90;;;;;;5068139;28;20033;-70
2023/10/22 05:33:39;;;;;;;6.65;0.93;;;12.40;99.90;;;;;;5068469;28;20040;-70
2023/10/22 05:36:13;;;;;;;1.23;0.57;;;12.30;99.90;;;;;;5067371;28;20029;-69
2023/10/22 05:38:38;;;;;;;6.75;0.80;;;12.30;99.90;;;;;;5069554;28;20036;-70
2023/10/22 05:41:04;;;;;;;3.88;0.80;;;12.30;99.90;;;;;;5068423;28;20016;-70
2023/10/22 05:43:32;;;;;;;5.95;0.85;;;12.30;99.90;;;;;;5071454;28;21554;-70
2023/10/22 05:45:57;;;;;;;;;;;12.30;99.90;;;;;;5073389;28;20016;-70
2023/10/22 05:48:23;;;;;;;3.55;0.63;;;12.30;99.90;;;;;;5069496;28;19916;-70
2023/10/22 05:50:49;;;;;;;2.75;0.90;;;12.30;99.90;;;;;;5066949;28;20075;-69
2023/10/22 05:53:15;;;;;;;7.13;0.63;;;12.30;99.90;;;;;;5070010;28;20028;-70
2023/10/22 05:55:41;;;;;;;3.85;0.98;;;12.30;99.90;;;;;;5068025;28;20043;-69
2023/10/22 05:58:09;;;;;;;5.72;1.02;;;12.30;99.90;;;;;;5064124;28;20030;-70
2023/10/22 06:00:38;;;;;;;;;;;12.20;99.90;;;;;;5048090;28;20923;-70
2023/10/22 06:03:03;;;;;;;5.80;0.98;;;12.20;99.90;;;;;;5060166;28;19958;-69
2023/10/22 06:05:29;;;;;;;6.38;1.13;;;12.20;99.90;;;;;;5073379;28;20021;-70
2023/10/22 06:07:54;;;;;;;4.50;0.93;;;12.20;99.90;;;;;;5071924;28;20032;-69
2023/10/22 06:10:20;;;;;;;3.00;0.65;;;12.20;99.90;;;;;;5073647;28;20024;-69
2023/10/22 06:12:49;;;;;;;5.80;0.70;;;12.10;99.90;;;;;;5065818;28;20025;-69
2023/10/22 06:15:17;;;;;;;6.10;0.82;;;12.10;99.90;;;;;;5060518;28;20111;-69
2023/10/22 06:17:44;;;;;;;6.22;0.68;;;12.20;99.90;;;;;;5069224;28;20526;-70
2023/10/22 06:20:10;;;;;;;1.23;0.60;;;12.20;99.90;;;;;;5062692;28;20048;-70
2023/10/22 06:22:36;;;;;;;5.25;0.80;;;12.20;99.90;;;;;;5067584;28;20020;-70
2023/10/22 06:25:04;;;;;;;5.30;0.98;;;12.20;99.90;;;;;;5079208;28;20085;-70
2023/10/22 06:27:30;;;;;;;4.25;1.00;;;12.20;99.90;;;;;;5074129;28;20107;-70
2023/10/22 06:29:55;;;;;;;4.13;0.90;;;12.20;99.90;;;;;;5074731;28;20112;-69
2023/10/22 06:32:21;;;;;;;2.92;0.43;;;12.20;99.90;;;;;;5065463;28;20500;-70
2023/10/22 06:34:47;;;;;;;5.03;0.95;;;12.30;99.90;;;;;;5069004;28;20032;-70
2023/10/22 06:37:14;;;;;;;7.38;0.93;;;12.30;99.90;;;;;;5067065;28;20043;-70
2023/10/22 06:39:40;;;;;;;6.22;1.05;;;12.30;99.90;;;;;;5063091;28;20021;-70
2023/10/22 06:42:06;;;;;;;5.40;0.85;;;12.30;99.90;;;;;;5070095;28;20035;-71
2023/10/22 06:44:31;;;;;;;5.97;0.63;;;12.30;99.90;;;;;;5068851;28;20025;-71
2023/10/22 06:46:59;;;;;;;3.13;0.63;;;12.30;99.90;;;;;;5066074;28;20032;-69
2023/10/22 06:49:25;;;;;;;;;;;12.20;99.90;;;;;;5066970;28;20432;-70
2023/10/22 06:51:50;;;;;;;3.83;0.55;;;12.20;99.90;;;;;;5063497;28;19922;-70
2023/10/22 06:54:16;;;;;;;6.63;1.13;;;12.30;99.90;;;;;;5068890;28;20089;-70
2023/10/22 06:56:41;;;;;;;6.30;0.93;;;12.30;99.90;;;;;;5065887;28;20032;-69
2023/10/22 06:59:09;;;;;;;2.47;1.10;;;12.30;99.90;;;;;;5067636;28;20036;-70
2023/10/22 07:01:35;;;;;;;1.90;0.93;;;12.30;99.90;;;;;;5063555;28;20028;-69
2023/10/22 07:04:00;;;;;;;7.28;1.02;;;12.30;99.90;;;;;;5064410;28;20040;-69
2023/10/22 07:06:28;;;;;;;3.47;0.80;;;12.40;99.90;;;;;;5061604;28;20107;-69
2023/10/22 07:08:59;;;;;;;;;;;12.30;99.90;;;;;;5063188;28;20597;-69
2023/10/22 07:11:24;;;;;;;2.80;0.82;;;12.40;99.90;;;;;;5063373;28;19915;-70
2023/10/22 07:13:50;;;;;;;5.30;0.77;;;12.40;99.90;;;;;;5059528;28;20466;-70
2023/10/22 07:16:15;;;;;;;4.57;0.90;;;12.40;99.90;;;;;;5073747;28;20021;-70
2023/10/22 07:18:44;;;;;;;8.00;0.82;;;12.50;99.90;;;;;;5068281;28;20067;-70
2023/10/22 07:21:09;;;;;;;1.75;0.82;;;12.50;99.90;;;;;;5067227;28;20025;-69
2023/10/22 07:23:37;;;;;;;4.53;1.10;;;12.50;99.90;;;;;;5063800;28;20032;-70
2023/10/22 07:26:05;;;;;;;2.50;0.90;;;12.50;99.90;;;;;;5073530;28;20032;-70
2023/10/22 07:28:30;;;;;;;2.95;0.70;;;12.50;99.90;;;;;;5083557;28;20025;-70
2023/10/22 07:30:56;;;;;;;3.83;0.85;;;12.60;99.90;;;;;;5074424;28;20028;-70
2023/10/22 07:33:22;;;;;;;2.13;0.70;;;12.60;99.90;;;;;;5066477;28;20036;-70
2023/10/22 07:36:00;;;;;;;8.45;1.00;;;12.70;99.90;;;;;;5072325;28;20048;-70
2023/10/22 07:38:29;;;;;;;6.03;1.08;;;12.70;99.90;;;;;;5064626;28;20533;-70
2023/10/22 07:40:58;;;;;;;7.15;0.80;;;12.80;99.90;;;;;;5074736;28;20040;-70
2023/10/22 07:43:29;;;;;;;4.55;0.70;;;12.80;99.90;;;;;;5069823;28;20081;-70
2023/10/22 07:45:59;;;;;;;5.68;1.25;;;12.90;99.90;;;;;;5072801;28;20024;-69
2023/10/22 07:48:27;;;;;;;2.97;0.88;;;12.90;99.90;;;;;;5071681;28;20028;-69
2023/10/22 07:50:55;;;;;;;6.55;1.10;;;12.90;99.90;;;;;;5073374;28;20023;-73
2023/10/22 07:53:21;;;;;;;6.85;0.90;;;13.00;99.90;;;;;;5067171;28;20027;-70
2023/10/22 07:55:47;;;;;;;4.85;1.10;;;13.00;99.90;;;;;;5073855;28;20456;-70
2023/10/22 07:58:12;;;;;;;4.38;0.70;;;13.10;99.90;;;;;;5073685;28;20036;-71
2023/10/22 08:00:38;;;;;;;3.25;0.95;;;13.10;99.90;;;;;;5068598;28;20051;-71
2023/10/22 08:03:03;;;;;;;5.65;0.80;;;13.10;99.90;;;;;;5067103;28;20082;-70
2023/10/22 08:05:31;;;;;;;7.03;0.93;;;13.20;99.90;;;;;;5070733;28;20591;-72
2023/10/22 08:07:57;;;;;;;2.95;0.85;;;13.20;99.90;;;;;;5070660;28;20048;-70
2023/10/22 08:10:24;;;;;;;5.72;1.00;;;13.20;99.90;;;;;;5067733;28;20075;-70
2023/10/22 08:12:50;;;;;;;1.50;0.73;;;13.30;99.90;;;;;;5066724;28;20379;-69
2023/10/22 08:15:18;;;;;;;3.78;0.70;;;13.40;99.90;;;;;;5067192;28;20029;-69
2023/10/22 08:17:43;;;;;;;;;;;13.40;99.90;;;;;;5077233;28;20445;-69
2023/10/22 08:20:11;;;;;;;2.30;0.63;;;13.50;99.90;;;;;;5068771;28;19951;-70
2023/10/22 08:22:37;;;;;;;2.08;0.70;;;13.50;99.90;;;;;;5071247;28;20116;-71
2023/10/22 08:25:03;;;;;;;5.20;0.88;;;13.60;99.90;;;;;;5075113;28;20455;-71
2023/10/22 08:27:28;;;;;;;2.63;0.60;;;13.60;99.90;;;;;;5073510;28;20051;-70
2023/10/22 08:29:54;;;;;;;3.10;0.63;;;13.80;99.90;;;;;;5062021;28;20039;-72
2023/10/22 08:32:22;;;;;;;4.35;0.90;;;13.80;99.90;;;;;;5067154;28;20032;-70
2023/10/22 08:34:48;;;;;;;6.03;1.10;;;13.80;99.90;;;;;;5066798;28;20020;-69
2023/10/22 08:37:16;;;;;;;5.72;1.42;;;13.80;99.90;;;;;;5072975;28;20439;-71
2023/10/22 08:39:42;;;;;;;;;;;13.80;99.90;;;;;;5070757;28;20024;-70
2023/10/22 08:42:11;;;;;;;4.70;1.15;;;13.80;99.90;;;;;;5074369;28;19908;-70
2023/10/22 08:44:51;;;;;;;2.25;0.80;;;13.80;99.90;;;;;;5068636;28;20055;-70
2023/10/22 08:47:17;;;;;;;3.28;0.85;;;13.70;99.90;;;;;;5066607;28;20021;-70
2023/10/22 08:49:43;;;;;;;2.85;0.80;;;13.70;99.90;;;;;;5070534;28;20070;-70
2023/10/22 08:52:08;;;;;;;5.97;1.00;;;13.70;99.90;;;;;;5074428;28;20024;-70
2023/10/22 08:54:36;;;;;;;3.15;0.85;;;13.70;99.90;;;;;;5074705;28;20067;-70
2023/10/22 08:57:02;;;;;;;4.75;1.50;;;13.70;99.90;;;;;;5067141;28;20521;-70
2023/10/22 08:59:28;;;;;;;1.70;0.70;;;13.70;99.90;;;;;;5067907;28;20045;-70
2023/10/22 09:01:54;;;;;;;8.75;1.45;;;13.70;99.90;;;;;;5068791;28;20062;-70
2023/10/22 09:04:20;;;;;;;6.68;0.80;;;13.70;99.90;;;;;;5073665;28;20029;-70
2023/10/22 09:06:48;;;;;;;3.85;0.80;;;13.70;99.90;;;;;;5074928;28;20036;-70
2023/10/22 09:09:32;;;;;;;3.85;0.85;;;13.70;99.90;;;;;;5077184;28;20089;-71
2023/10/22 09:11:58;;;;;;;9.68;0.93;;;13.70;99.90;;;;;;5072881;28;20025;-70
2023/10/22 09:14:24;;;;;;;5.40;1.02;;;13.70;99.90;;;;;;5067012;28;20511;-69
2023/10/22 09:16:52;;;;;;;5.05;0.90;;;13.70;99.90;;;;;;5070517;28;20031;-70
2023/10/22 09:19:37;;;;;;;2.50;0.45;;;13.70;99.90;;;;;;5072785;28;20393;-70
2023/10/22 09:22:06;;;;;;;2.42;0.73;;;13.80;99.90;;;;;;5067182;28;20028;-70
2023/10/22 09:24:34;;;;;;;3.15;0.63;;;13.90;99.90;;;;;;5065411;28;20028;-70
2023/10/22 09:27:02;;;;;;;1.95;0.75;;;13.90;99.90;;;;;;5066928;28;20040;-77
2023/10/22 09:29:28;;;;;;;10.98;0.95;;;13.90;99.90;;;;;;5060364;28;20040;-71
2023/10/22 09:31:57;;;;;;;2.13;0.68;;;14.00;99.90;;;;;;5067994;28;20032;-71
2023/10/22 09:34:26;;;;;;;5.35;0.75;;;14.10;99.90;;;;;;5069532;28;20028;-72
2023/10/22 09:36:53;;;;;;;4.90;0.80;;;14.00;99.90;;;;;;5068683;28;20033;-72
2023/10/22 09:39:33;;;;;;;5.60;0.90;;;14.10;99.90;;;;;;5076061;28;20036;-72
2023/10/22 09:41:59;;;;;;;4.75;0.70;;;14.10;99.90;;;;;;5065364;28;20090;-71
2023/10/22 09:44:28;;;;;;;3.17;0.82;;;14.10;99.90;;;;;;5070491;28;20024;-71
2023/10/22 09:46:54;;;;;;;2.42;0.73;;;14.20;99.90;;;;;;5070797;28;20051;-72
2023/10/22 09:49:22;;;;;;;5.63;0.75;;;14.20;99.90;;;;;;5063899;28;20029;-72
2023/10/22 09:51:50;;;;;;;5.05;1.00;;;14.20;99.90;;;;;;5068388;28;20035;-72
2023/10/22 09:54:20;;;;;;;1.73;0.68;;;14.20;99.90;;;;;;5063761;28;20032;-72
2023/10/22 09:56:53;;;;;;;4.57;0.40;;;14.30;99.90;;;;;;5070254;28;20031;-72
2023/10/22 09:59:22;;;;;;;5.28;0.70;;;14.30;99.90;;;;;;5076599;28;20101;-72
2023/10/22 10:01:48;;;;;;;3.83;0.80;;;14.40;99.90;;;;;;5070918;28;20070;-71
2023/10/22 10:04:14;;;;;;;2.00;0.80;;;14.40;99.90;;;;;;5068950;28;20497;-72
2023/10/22 10:06:40;;;;;;;2.33;0.70;;;14.40;99.90;;;;;;5067847;28;20024;-71
2023/10/22 10:09:07;;;;;;;3.38;0.70;;;14.40;99.90;;;;;;5065233;28;20047;-71
2023/10/22 10:11:34;;;;;;;2.00;0.95;;;14.50;99.90;;;;;;5064377;28;20360;-72
2023/10/22 10:14:13;;;;;;;6.32;0.90;;;14.50;99.90;;;;;;5080890;28;20024;-72
2023/10/22 10:16:57;;;;;;;5.25;0.50;;;14.60;99.90;;;;;;5074231;28;20070;-72
2023/10/22 10:19:25;;;;;;;2.30;0.60;;;14.60;99.90;;;;;;5068973;28;20398;-72
2023/10/22 10:21:53;;;;;;;;;;;14.60;99.90;;;;;;5073409;28;20509;-75
2023/10/22 10:24:23;;;;;;;2.95;0.60;;;14.70;99.90;;;;;;5065116;28;19908;-75
2023/10/22 10:26:56;;;;;;;2.92;0.75;;;14.70;99.90;;;;;;5071011;28;20373;-72
2023/10/22 10:29:32;;;;;;;2.67;0.70;;;14.70;99.90;;;;;;5065381;28;20060;-73
2023/10/22 10:32:13;;;;;;;1.48;0.60;;;14.90;99.90;;;;;;5071946;28;20063;-73
2023/10/22 10:34:40;;;;;;;1.67;0.60;;;15.00;99.90;;;;;;5068602;28;20041;-72
2023/10/22 10:37:13;;;;;;;2.17;0.60;;;15.30;99.90;;;;;;5065767;28;20086;-74
2023/10/22 10:39:51;;;;;;;6.38;0.90;;;15.50;99.90;;;;;;5078453;28;20021;-73
2023/10/22 10:42:28;;;;;;;3.33;0.60;;;15.90;99.90;;;;;;5072933;28;20017;-73
2023/10/22 10:44:54;;;;;;;1.45;0.40;;;16.30;99.90;;;;;;5062694;28;20029;-73
2023/10/22 10:47:25;;;;;;;1.45;0.57;;;16.20;99.90;;;;;;5068387;28;20032;-73
2023/10/22 10:50:10;;;;;;;2.78;0.60;;;16.20;99.90;;;;;;5085576;22;20506;-73
2023/10/22 10:52:56;;;;;;;2.13;0.38;;;16.00;99.90;;;;;;5064297;28;20528;-72
2023/10/22 10:55:24;;;;;;;1.88;0.60;;;15.90;99.90;;;;;;5063463;28;20032;-69
2023/10/22 10:57:52;;;;;;;0.65;0.57;;;15.70;99.90;;;;;;5062908;28;20052;-69
2023/10/22 11:00:32;;;;;;;1.83;0.63;;;15.70;99.90;;;;;;5062311;28;20021;-70
2023/10/22 11:03:10;;;;;;;1.50;0.38;;;15.60;99.90;;;;;;5064445;28;20025;-69
2023/10/22 11:05:42;;;;;;;1.75;0.52;;;15.60;99.90;;;;;;5064038;28;20035;-69
2023/10/22 11:08:11;;;;;;;2.03;0.77;;;15.50;99.90;;;;;;5070991;28;20108;-69
2023/10/22 11:10:37;;;;;;;3.80;0.95;;;15.50;99.90;;;;;;5067402;28;20115;-69
2023/10/22 11:13:09;;;;;;;7.30;0.75;;;15.50;99.90;;;;;;5071363;28;20103;-69
2023/10/22 11:15:36;;;;;;;3.33;0.50;;;15.40;99.90;;;;;;5067091;28;20032;-70
2023/10/22 11:18:12;;;;;;;0.25;0.25;;;15.30;99.90;;;;;;5069963;28;20494;-70
2023/10/22 11:20:39;;;;;;;1.17;0.45;;;15.30;99.90;;;;;;5065215;28;20036;-72
2023/10/22 11:23:20;;;;;;;1.63;0.40;;;15.30;99.90;;;;;;5065084;28;20023;-71
2023/10/22 11:25:46;;;;;;;1.30;0.40;;;15.30;99.90;;;;;;5066794;28;20420;-71
2023/10/22 11:28:12;;;;;;;0.50;0.20;;;15.30;99.90;;;;;;5067913;28;20036;-71
2023/10/22 11:30:40;;;;;;;2.30;0.73;;;15.10;99.90;;;;;;5067072;28;20115;-71
2023/10/22 11:33:11;;;;;;;1.05;0.50;;;15.20;99.90;;;;;;5072171;28;20024;-71
2023/10/22 11:35:39;;;;;;;1.20;0.20;;;15.20;99.90;;;;;;5062750;28;20158;-71
2023/10/22 11:38:08;;;;;;;;;;;15.10;99.90;;;;;;5066870;28;20025;-70
2023/10/22 11:40:38;;;;;;;1.25;0.50;;;15.10;99.90;;;;;;5069264;28;20271;-72
2023/10/22 11:43:24;;;;;;;1.17;0.43;;;15.10;99.90;;;;;;5064010;28;20646;-72
2023/10/22 11:45:51;;;;;;;0.50;0.20;;;15.10;99.90;;;;;;5068695;28;20410;-72
2023/10/22 11:48:24;;;;;;;3.33;0.50;;;15.20;99.90;;;;;;5065926;28;20020;-72
2023/10/22 11:50:54;;;;;;;0.30;0.30;;;15.20;99.90;;;;;;5066332;28;20033;-72
2023/10/22 11:53:29;;;;;;;2.83;0.50;;;15.10;99.90;;;;;;5064316;28;20093;-72
2023/10/22 11:55:54;;;;;;;3.33;0.90;;;15.10;99.90;;;;;;5069604;28;20028;-72
2023/10/22 11:58:24;;;;;;;3.00;0.70;;;15.20;99.90;;;;;;5069191;28;20492;-75
2023/10/22 12:00:51;;;;;;;1.25;0.40;;;15.10;99.60;;;;;;5064780;28;20032;-71
2023/10/22 12:03:19;;;;;;;1.98;0.20;;;15.10;99.00;;;;;;5064957;28;20016;-72
2023/10/22 12:05:45;;;;;;;2.50;0.35;;;15.10;99.40;;;;;;5066757;28;20049;-72
2023/10/22 12:08:11;;;;;;;1.60;0.45;;;15.00;99.00;;;;;;5067831;28;20083;-72
2023/10/22 12:10:37;;;;;;;0.77;0.40;;;15.10;98.90;;;;;;5069381;28;20032;-72
2023/10/22 12:13:05;;;;;;;1.27;0.40;;;15.10;98.20;;;;;;5063659;28;20074;-72
2023/10/22 12:15:31;;;;;;;0.45;0.30;;;15.10;98.80;;;;;;5065486;28;20028;-72
2023/10/22 12:17:57;;;;;;;1.15;0.35;;;15.00;98.20;;;;;;5067735;28;20016;-72
2023/10/22 12:20:23;;;;;;;1.50;0.50;;;15.00;98.20;;;;;;5066692;28;20148;-72
2023/10/22 12:22:49;;;;;;;1.30;0.40;;;15.00;98.10;;;;;;5062817;28;20112;-72
2023/10/22 12:25:14;;;;;;;2.28;0.50;;;15.00;98.50;;;;;;5067013;28;20028;-72
2023/10/22 12:27:40;;;;;;;0.60;0.30;;;15.00;98.20;;;;;;5065825;28;20024;-72
2023/10/22 12:30:07;;;;;;;0.63;0.40;;;15.00;98.70;;;;;;5062861;28;20036;-73
2023/10/22 12:32:33;;;;;;;0.20;0.20;;;15.00;98.70;;;;;;5063700;28;20029;-74
2023/10/22 12:34:59;;;;;;;1.85;0.50;;;15.00;98.20;;;;;;5065374;28;20478;-73
2023/10/22 12:37:25;;;;;;;0.85;0.40;;;15.00;98.40;;;;;;5068364;28;20024;-73
2023/10/22 12:39:51;;;;;;;0.60;0.17;;;15.00;98.10;;;;;;5058308;28;20020;-73
2023/10/22 12:42:16;;;;;;;0.90;0.30;;;15.00;98.30;;;;;;5062553;28;20454;-72
2023/10/22 12:44:45;;;;;;;4.97;0.30;;;15.10;98.20;;;;;;5063166;28;20094;-73
2023/10/22 12:47:14;;;;;;;0.90;0.50;;;15.00;98.10;;;;;;5066172;28;20056;-73
2023/10/22 12:49:41;;;;;;;3.10;1.05;;;15.00;98.10;;;;;;5064048;28;20825;-73
2023/10/22 12:52:07;;;;;;;1.77;0.40;;;15.10;97.40;;;;;;5063751;28;20060;-73
2023/10/22 12:54:33;;;;;;;4.32;0.90;;;15.10;97.30;;;;;;5064083;28;20046;-77